createdAt,value
2019-02-10T00:02:27.765Z,11.10
2019-02-10T00:04:56.033Z,11.50
2019-02-10T00:07:24.310Z,10.93
2019-02-10T00:09:52.587Z,11.04
2019-02-10T00:12:20.842Z,11.05
2019-02-10T00:14:49.121Z,10.61
2019-02-10T00:17:17.388Z,10.97
2019-02-10T00:19:45.662Z,10.94
2019-02-10T00:22:13.957Z,10.64
2019-02-10T00:24:42.303Z,11.24
2019-02-10T00:27:10.565Z,10.95
2019-02-10T00:29:38.834Z,11.21
2019-02-10T00:32:12.284Z,11.10
2019-02-10T00:34:41.916Z,10.93
2019-02-10T00:37:10.195Z,11.34
2019-02-10T00:39:38.506Z,13.67
2019-02-10T00:42:06.782Z,11.12
2019-02-10T00:44:35.052Z,10.93
2019-02-10T00:47:03.332Z,10.93
2019-02-10T00:49:31.582Z,10.93
2019-02-10T00:51:59.874Z,11.48
2019-02-10T00:54:28.141Z,10.80
2019-02-10T00:56:56.426Z,11.56
2019-02-10T00:59:25.124Z,10.98
2019-02-10T01:01:53.393Z,11.47
2019-02-10T01:04:21.678Z,12.12
2019-02-10T01:06:49.967Z,11.46
2019-02-10T01:09:18.319Z,11.32
2019-02-10T01:11:46.591Z,11.87
2019-02-10T01:14:14.881Z,12.08
2019-02-10T01:16:43.155Z,11.25
2019-02-10T01:19:11.423Z,11.40
2019-02-10T01:21:39.713Z,12.60
2019-02-10T01:24:07.996Z,12.12
2019-02-10T01:26:36.324Z,11.86
2019-02-10T01:29:04.606Z,12.11
2019-02-10T01:31:32.910Z,11.67
2019-02-10T01:34:01.212Z,12.11
2019-02-10T01:36:29.465Z,11.94
2019-02-10T01:38:57.728Z,11.83
2019-02-10T01:41:26.016Z,12.40
2019-02-10T01:43:54.290Z,11.87
2019-02-10T01:46:22.550Z,11.79
2019-02-10T01:48:50.827Z,12.11
2019-02-10T01:51:19.108Z,11.76
2019-02-10T01:53:47.367Z,12.04
2019-02-10T01:56:15.648Z,12.22
2019-02-10T01:58:43.931Z,12.44
2019-02-10T02:01:12.280Z,11.71
2019-02-10T02:03:40.538Z,12.25
2019-02-10T02:06:08.822Z,12.16
2019-02-10T02:08:37.085Z,12.30
2019-02-10T02:11:05.347Z,12.46
2019-02-10T02:13:33.639Z,12.32
2019-02-10T02:16:01.916Z,12.58
2019-02-10T02:18:30.270Z,12.18
2019-02-10T02:20:58.560Z,12.34
2019-02-10T02:23:26.863Z,12.27
2019-02-10T02:25:55.109Z,12.21
2019-02-10T02:28:23.388Z,12.36
2019-02-10T02:30:51.679Z,12.25
2019-02-10T02:33:19.940Z,12.34
2019-02-10T02:35:48.192Z,12.32
2019-02-10T02:38:16.477Z,12.29
2019-02-10T02:40:44.767Z,12.10
2019-02-10T02:43:13.092Z,12.44
2019-02-10T02:45:41.347Z,12.08
2019-02-10T02:48:09.630Z,12.36
2019-02-10T02:50:37.933Z,12.03
2019-02-10T02:53:06.214Z,12.27
2019-02-10T02:55:34.477Z,12.50
2019-02-10T02:58:02.749Z,13.04
2019-02-10T03:00:31.013Z,12.51
2019-02-10T03:02:59.306Z,12.78
2019-02-10T03:05:27.574Z,12.08
2019-02-10T03:07:55.844Z,12.40
2019-02-10T03:10:24.103Z,12.47
2019-02-10T03:12:52.438Z,12.65
2019-02-10T03:15:20.713Z,12.46
2019-02-10T03:17:48.963Z,12.26
2019-02-10T03:20:17.228Z,12.61
2019-02-10T03:22:45.496Z,12.70
2019-02-10T03:25:13.836Z,12.66
2019-02-10T03:27:42.106Z,12.81
2019-02-10T03:30:11.829Z,12.29
2019-02-10T03:32:40.436Z,12.51
2019-02-10T03:35:11.457Z,12.37
2019-02-10T03:37:39.729Z,12.45
2019-02-10T03:40:09.637Z,12.38
2019-02-10T03:42:37.880Z,12.22
2019-02-10T03:45:09.626Z,12.51
2019-02-10T03:47:37.991Z,12.57
2019-02-10T03:50:07.879Z,12.53
2019-02-10T03:52:36.147Z,12.63
2019-02-10T03:55:05.967Z,13.12
2019-02-10T03:57:34.493Z,12.80
2019-02-10T04:00:03.531Z,12.52
2019-02-10T04:02:31.809Z,12.55
2019-02-10T04:05:00.228Z,13.12
2019-02-10T04:07:35.797Z,12.76
2019-02-10T04:09:59.389Z,12.41
2019-02-10T04:12:27.659Z,12.59
2019-02-10T04:14:55.915Z,12.08
2019-02-10T04:17:24.231Z,11.96
2019-02-10T04:19:52.519Z,12.35
2019-02-10T04:22:20.956Z,12.53
2019-02-10T04:24:49.226Z,12.51
2019-02-10T04:27:17.572Z,12.40
2019-02-10T04:29:45.874Z,12.46
2019-02-10T04:32:14.228Z,12.45
2019-02-10T04:34:42.502Z,12.06
2019-02-10T04:37:10.776Z,11.95
2019-02-10T04:39:39.038Z,12.48
2019-02-10T04:42:07.319Z,13.65
2019-02-10T04:44:35.793Z,12.60
2019-02-10T04:47:48.286Z,12.07
2019-02-10T04:50:07.597Z,12.13
2019-02-10T04:52:35.888Z,12.40
2019-02-10T04:55:05.489Z,12.17
2019-02-10T04:57:33.779Z,12.39
2019-02-10T05:00:02.028Z,12.38
2019-02-10T05:02:30.300Z,12.66
2019-02-10T05:04:58.573Z,12.73
2019-02-10T05:07:26.839Z,12.43
2019-02-10T05:09:55.100Z,12.99
2019-02-10T05:12:23.627Z,12.73
2019-02-10T05:14:51.921Z,12.09
2019-02-10T05:17:20.163Z,12.03
2019-02-10T05:19:48.416Z,11.96
2019-02-10T05:22:17.985Z,12.21
2019-02-10T05:24:46.501Z,12.02
2019-02-10T05:27:14.761Z,12.04
2019-02-10T05:29:43.025Z,12.51
2019-02-10T05:32:11.288Z,12.13
2019-02-10T05:34:39.640Z,12.54
2019-02-10T05:37:07.882Z,12.53
2019-02-10T05:39:36.149Z,12.57
2019-02-10T05:42:04.426Z,12.37
2019-02-10T05:44:32.766Z,12.47
2019-02-10T05:47:01.099Z,12.13
2019-02-10T05:49:29.291Z,12.20
2019-02-10T05:51:57.567Z,12.48
2019-02-10T05:54:25.832Z,12.37
2019-02-10T05:56:54.096Z,12.62
2019-02-10T05:59:22.384Z,12.83
2019-02-10T06:02:08.477Z,12.71
2019-02-10T06:04:43.861Z,12.75
2019-02-10T06:07:16.622Z,13.09
2019-02-10T06:09:45.102Z,12.44
2019-02-10T06:12:13.365Z,12.57
2019-02-10T06:14:41.627Z,12.59
2019-02-10T06:17:09.889Z,12.92
2019-02-10T06:19:38.143Z,12.69
2019-02-10T06:22:06.428Z,12.97
2019-02-10T06:24:34.708Z,12.79
2019-02-10T06:27:02.968Z,13.08
2019-02-10T06:29:31.247Z,13.20
2019-02-10T06:31:59.513Z,12.62
2019-02-10T06:34:27.767Z,13.07
2019-02-10T06:36:56.053Z,12.87
2019-02-10T06:39:24.318Z,13.17
2019-02-10T06:41:52.589Z,12.90
2019-02-10T06:44:20.872Z,12.82
2019-02-10T06:46:49.177Z,13.10
2019-02-10T06:49:17.450Z,12.87
2019-02-10T06:51:45.722Z,12.98
2019-02-10T06:54:14.012Z,12.72
2019-02-10T06:56:42.267Z,12.76
2019-02-10T06:59:12.192Z,13.11
2019-02-10T07:01:47.642Z,13.34
2019-02-10T07:04:17.433Z,12.92
2019-02-10T07:06:45.710Z,12.82
2019-02-10T07:09:13.973Z,12.71
2019-02-10T07:11:42.272Z,12.87
2019-02-10T07:14:22.521Z,13.10
2019-02-10T07:16:53.960Z,12.92
2019-02-10T07:19:58.696Z,12.86
2019-02-10T07:22:45.104Z,13.04
2019-02-10T07:25:16.538Z,13.34
2019-02-10T07:28:03.237Z,13.34
2019-02-10T07:30:56.176Z,13.76
2019-02-10T07:33:30.611Z,12.85
2019-02-10T07:36:02.067Z,13.41
2019-02-10T07:38:38.754Z,14.14
2019-02-10T07:41:18.607Z,14.16
2019-02-10T07:44:06.608Z,13.59
2019-02-10T07:47:12.377Z,13.65
2019-02-10T07:50:07.655Z,13.66
2019-02-10T07:52:58.427Z,14.23
2019-02-10T07:55:35.663Z,14.42
2019-02-10T07:58:18.916Z,14.08
2019-02-10T08:01:08.157Z,14.00
2019-02-10T08:03:48.675Z,13.98
2019-02-10T08:06:22.988Z,13.91
2019-02-10T08:09:13.911Z,13.77
2019-02-10T08:11:54.175Z,13.59
2019-02-10T08:14:40.630Z,13.49
2019-02-10T08:17:21.041Z,13.18
2019-02-10T08:20:01.299Z,13.59
2019-02-10T08:22:41.499Z,13.56
2019-02-10T08:25:18.668Z,13.66
2019-02-10T08:27:52.796Z,13.76
2019-02-10T08:30:45.101Z,13.93
2019-02-10T08:33:19.539Z,13.76
2019-02-10T08:36:12.081Z,14.36
2019-02-10T08:38:58.316Z,13.45
2019-02-10T08:41:49.446Z,13.56
2019-02-10T08:44:40.703Z,13.67
2019-02-10T08:47:18.073Z,13.87
2019-02-10T08:50:13.613Z,13.56
2019-02-10T08:53:05.880Z,13.83
2019-02-10T08:55:34.158Z,13.76
2019-02-10T08:58:02.476Z,14.02
2019-02-10T09:00:30.742Z,14.24
2019-02-10T09:02:59.022Z,13.50
2019-02-10T09:05:27.290Z,13.91
2019-02-10T09:07:55.545Z,13.84
2019-02-10T09:10:23.851Z,14.35
2019-02-10T09:12:52.120Z,13.57
2019-02-10T09:15:20.455Z,14.09
2019-02-10T09:17:48.661Z,13.75
2019-02-10T09:20:17.013Z,13.85
2019-02-10T09:22:45.295Z,14.52
2019-02-10T09:25:13.596Z,14.01
2019-02-10T09:27:41.863Z,14.71
2019-02-10T09:30:16.157Z,14.30
2019-02-10T09:32:44.433Z,13.79
2019-02-10T09:35:12.688Z,14.28
2019-02-10T09:37:40.971Z,14.33
2019-02-10T09:40:11.475Z,14.52
2019-02-10T09:42:39.758Z,13.96
2019-02-10T09:45:10.852Z,13.94
2019-02-10T09:47:39.114Z,14.34
2019-02-10T09:50:18.837Z,14.09
2019-02-10T09:52:47.128Z,14.31
2019-02-10T09:55:15.409Z,14.03
2019-02-10T09:57:43.723Z,14.16
2019-02-10T10:00:14.003Z,13.96
2019-02-10T10:02:42.325Z,14.08
2019-02-10T10:05:12.566Z,15.43
2019-02-10T10:07:40.925Z,14.22
2019-02-10T10:10:11.987Z,14.57
2019-02-10T10:12:40.265Z,14.36
2019-02-10T10:15:11.167Z,14.95
2019-02-10T10:17:39.537Z,14.37
2019-02-10T10:20:11.112Z,14.13
2019-02-10T10:22:39.363Z,14.14
2019-02-10T10:25:09.306Z,14.19
2019-02-10T10:27:37.578Z,14.73
2019-02-10T10:30:14.732Z,14.31
2019-02-10T10:32:43.014Z,14.97
2019-02-10T10:35:11.280Z,14.94
2019-02-10T10:37:39.533Z,14.78
2019-02-10T10:40:09.646Z,14.69
2019-02-10T10:42:37.900Z,15.03
2019-02-10T10:45:09.280Z,14.64
2019-02-10T10:47:37.541Z,14.44
2019-02-10T10:50:08.650Z,14.35
2019-02-10T10:52:36.919Z,14.75
2019-02-10T10:55:07.838Z,14.13
2019-02-10T10:57:36.126Z,14.36
2019-02-10T11:00:07.000Z,13.99
2019-02-10T11:02:35.269Z,14.37
2019-02-10T11:05:04.100Z,14.01
2019-02-10T11:07:32.376Z,15.67
2019-02-10T11:10:00.638Z,14.29
2019-02-10T11:12:28.968Z,13.74
2019-02-10T11:14:57.257Z,14.02
2019-02-10T11:17:25.517Z,14.08
2019-02-10T11:19:53.800Z,21.10
2019-02-10T11:22:22.076Z,18.54
2019-02-10T11:24:50.365Z,18.32
2019-02-10T11:27:18.613Z,16.32
2019-02-10T11:29:46.914Z,17.15
2019-02-10T11:32:15.263Z,16.20
2019-02-10T11:34:46.214Z,16.12
2019-02-10T11:37:13.578Z,16.36
2019-02-10T11:39:43.793Z,16.46
2019-02-10T11:42:11.863Z,16.61
2019-02-10T11:44:40.141Z,16.81
2019-02-10T11:47:08.398Z,17.41
2019-02-10T11:49:36.740Z,16.22
2019-02-10T11:52:05.016Z,16.67
2019-02-10T11:54:33.280Z,16.86
2019-02-10T11:57:01.567Z,14.56
2019-02-10T11:59:29.835Z,14.17
2019-02-10T12:01:58.091Z,15.18
2019-02-10T12:04:26.371Z,13.92
2019-02-10T12:06:54.618Z,14.33
2019-02-10T12:09:22.877Z,14.54
2019-02-10T12:11:51.162Z,14.08
2019-02-10T12:14:19.421Z,15.05
2019-02-10T12:16:47.740Z,15.98
2019-02-10T12:19:16.018Z,19.33
2019-02-10T12:21:44.284Z,20.45
2019-02-10T12:24:12.557Z,18.87
2019-02-10T12:26:40.817Z,18.61
2019-02-10T12:29:09.086Z,18.08
2019-02-10T12:31:37.365Z,14.97
2019-02-10T12:34:05.643Z,12.52
2019-02-10T12:36:33.919Z,12.54
2019-02-10T12:39:02.255Z,12.52
2019-02-10T12:41:30.531Z,12.66
2019-02-10T12:43:58.793Z,12.35
2019-02-10T12:46:27.076Z,12.49
2019-02-10T12:48:55.328Z,12.66
2019-02-10T12:51:23.750Z,13.80
2019-02-10T12:53:52.058Z,14.08
2019-02-10T12:56:20.298Z,14.35
2019-02-10T12:58:48.570Z,13.20
2019-02-10T13:01:16.830Z,13.72
2019-02-10T13:03:45.115Z,13.60
2019-02-10T13:06:13.387Z,13.85
2019-02-10T13:08:41.658Z,13.42
2019-02-10T13:11:09.918Z,14.12
2019-02-10T13:13:38.202Z,13.84
2019-02-10T13:16:06.466Z,13.93
2019-02-10T13:18:34.740Z,13.94
2019-02-10T13:21:03.017Z,13.90
2019-02-10T13:23:31.282Z,14.19
2019-02-10T13:25:59.574Z,13.87
2019-02-10T13:28:27.964Z,14.24
2019-02-10T13:30:56.235Z,13.97
2019-02-10T13:33:24.518Z,13.60
2019-02-10T13:35:52.778Z,13.76
2019-02-10T13:38:21.109Z,13.78
2019-02-10T13:40:49.381Z,13.39
2019-02-10T13:43:17.668Z,13.79
2019-02-10T13:45:45.965Z,13.49
2019-02-10T13:48:14.233Z,13.85
2019-02-10T13:50:42.543Z,13.81
2019-02-10T13:53:10.802Z,13.59
2019-02-10T13:55:39.082Z,13.30
2019-02-10T13:58:07.351Z,13.26
2019-02-10T14:00:35.632Z,13.52
2019-02-10T14:03:03.913Z,13.84
2019-02-10T14:05:32.196Z,14.27
2019-02-10T14:08:00.495Z,14.92
2019-02-10T14:10:28.765Z,13.80
2019-02-10T14:12:58.691Z,13.79
2019-02-10T14:15:26.974Z,16.24
2019-02-10T14:17:55.232Z,14.79
2019-02-10T14:20:23.521Z,14.15
2019-02-10T14:22:51.787Z,14.02
2019-02-10T14:25:20.036Z,14.05
2019-02-10T14:27:48.328Z,15.01
2019-02-10T14:30:24.213Z,14.03
2019-02-10T14:32:52.509Z,14.03
2019-02-10T14:35:20.775Z,14.08
2019-02-10T14:37:49.049Z,13.98
2019-02-10T14:40:17.400Z,13.67
2019-02-10T14:42:46.526Z,13.92
2019-02-10T14:45:15.859Z,13.80
2019-02-10T14:47:44.127Z,13.46
2019-02-10T14:50:14.963Z,16.47
2019-02-10T14:52:43.254Z,14.59
2019-02-10T14:55:11.712Z,14.27
2019-02-10T14:57:39.998Z,16.94
2019-02-10T15:00:16.283Z,16.48
2019-02-10T15:02:44.631Z,15.28
2019-02-10T15:05:12.840Z,16.38
2019-02-10T15:07:41.099Z,15.91
2019-02-10T15:10:22.339Z,15.62
2019-02-10T15:12:51.173Z,16.08
2019-02-10T15:15:19.546Z,15.37
2019-02-10T15:17:47.847Z,15.95
2019-02-10T15:20:16.120Z,15.77
2019-02-10T15:22:44.376Z,15.69
2019-02-10T15:25:13.703Z,15.14
2019-02-10T15:27:42.050Z,15.53
2019-02-10T15:30:13.495Z,16.24
2019-02-10T15:32:41.809Z,15.24
2019-02-10T15:35:10.243Z,15.00
2019-02-10T15:37:38.491Z,15.31
2019-02-10T15:40:08.929Z,15.24
2019-02-10T15:42:37.252Z,15.79
2019-02-10T15:45:08.465Z,15.48
2019-02-10T15:47:36.750Z,15.47
2019-02-10T15:50:08.277Z,14.93
2019-02-10T15:52:36.552Z,15.41
2019-02-10T15:55:06.776Z,15.50
2019-02-10T15:57:35.090Z,15.28
2019-02-10T16:00:04.106Z,14.88
2019-02-10T16:02:32.381Z,15.69
2019-02-10T16:05:00.699Z,15.50
2019-02-10T16:07:29.002Z,15.13
2019-02-10T16:09:57.269Z,15.16
2019-02-10T16:12:25.526Z,15.43
2019-02-10T16:14:53.842Z,14.79
2019-02-10T16:17:22.102Z,15.46
2019-02-10T16:19:50.392Z,15.09
2019-02-10T16:22:21.215Z,14.71
2019-02-10T16:24:49.491Z,14.58
2019-02-10T16:27:17.872Z,13.66
2019-02-10T16:29:47.764Z,13.63
2019-02-10T16:32:16.076Z,13.63
2019-02-10T16:34:44.338Z,14.28
2019-02-10T16:37:12.686Z,13.65
2019-02-10T16:39:40.937Z,13.91
2019-02-10T16:42:09.213Z,14.01
2019-02-10T16:44:37.492Z,15.30
2019-02-10T16:47:05.774Z,14.74
2019-02-10T16:49:34.050Z,16.28
2019-02-10T16:52:02.335Z,16.02
2019-02-10T16:54:30.629Z,15.89
2019-02-10T16:56:58.907Z,14.65
2019-02-10T16:59:27.197Z,15.35
2019-02-10T17:01:55.471Z,15.88
2019-02-10T17:04:23.750Z,14.76
2019-02-10T17:06:52.060Z,15.03
2019-02-10T17:09:20.335Z,14.73
2019-02-10T17:14:17.068Z,15.33
2019-02-10T17:16:45.361Z,14.29
2019-02-10T17:19:13.618Z,14.87
2019-02-10T17:21:41.905Z,14.97
2019-02-10T17:24:10.180Z,14.74
2019-02-10T17:26:38.505Z,15.20
2019-02-10T17:29:06.770Z,14.35
2019-02-10T17:31:36.150Z,13.96
2019-02-10T17:34:04.518Z,14.73
2019-02-10T17:36:32.760Z,13.47
2019-02-10T17:39:01.077Z,14.94
2019-02-10T17:41:29.450Z,16.65
2019-02-10T17:43:57.718Z,20.44
2019-02-10T17:46:26.021Z,18.88
2019-02-10T17:48:54.294Z,19.15
2019-02-10T17:51:22.609Z,17.08
2019-02-10T17:53:50.851Z,19.36
2019-02-10T17:56:19.127Z,19.15
2019-02-10T17:58:47.440Z,18.97
2019-02-10T18:01:15.717Z,17.03
2019-02-10T18:03:44.011Z,17.84
2019-02-10T18:06:12.284Z,17.61
2019-02-10T18:08:40.551Z,17.75
2019-02-10T18:11:08.827Z,17.51
2019-02-10T18:13:37.102Z,17.40
2019-02-10T18:16:22.079Z,17.55
2019-02-10T18:18:55.188Z,16.50
2019-02-10T18:21:25.135Z,17.33
2019-02-10T18:23:57.474Z,16.56
2019-02-10T18:26:39.591Z,16.47
2019-02-10T18:29:25.644Z,16.51
2019-02-10T18:32:04.409Z,15.26
2019-02-10T18:34:46.294Z,16.17
2019-02-10T18:37:21.967Z,15.85
2019-02-10T18:39:54.616Z,16.15
2019-02-10T18:42:40.672Z,15.70
2019-02-10T18:45:13.342Z,16.91
2019-02-10T18:47:46.451Z,17.16
2019-02-10T18:50:22.475Z,15.89
2019-02-10T18:52:55.310Z,16.17
2019-02-10T18:55:27.910Z,16.06
2019-02-10T18:58:06.555Z,15.64
2019-02-10T19:00:38.042Z,16.05
2019-02-10T19:03:19.963Z,15.45
2019-02-10T19:05:49.881Z,16.74
2019-02-10T19:08:31.973Z,15.37
2019-02-10T19:11:18.116Z,14.95
2019-02-10T19:13:50.743Z,15.02
2019-02-10T19:16:26.561Z,16.30
2019-02-10T19:19:12.727Z,15.42
2019-02-10T19:21:45.344Z,16.28
2019-02-10T19:24:15.305Z,16.04
2019-02-10T19:27:00.288Z,14.92
2019-02-10T19:29:39.132Z,14.58
2019-02-10T19:32:14.741Z,15.67
2019-02-10T19:34:53.591Z,14.96
2019-02-10T19:37:23.532Z,14.00
2019-02-10T19:39:56.112Z,14.95
2019-02-10T19:42:40.962Z,14.59
2019-02-10T19:45:25.910Z,14.52
2019-02-10T19:47:58.772Z,14.23
2019-02-10T19:50:37.474Z,13.79
2019-02-10T19:53:07.409Z,14.84
2019-02-10T19:55:39.771Z,14.77
2019-02-10T19:58:12.432Z,14.04
2019-02-10T20:00:42.342Z,15.66
2019-02-10T20:03:21.287Z,14.19
2019-02-10T20:05:51.229Z,14.07
2019-02-10T20:08:39.169Z,13.86
2019-02-10T20:11:09.068Z,13.54
2019-02-10T20:13:38.980Z,14.48
2019-02-10T20:16:08.902Z,13.83
2019-02-10T20:18:44.606Z,13.96
2019-02-10T20:21:26.204Z,14.31
2019-02-10T20:23:56.166Z,14.05
2019-02-10T20:26:37.788Z,14.26
2019-02-10T20:29:22.925Z,13.77
2019-02-10T20:31:58.736Z,14.10
2019-02-10T20:34:47.163Z,14.23
2019-02-10T20:37:17.080Z,14.26
2019-02-10T20:39:49.447Z,14.41
2019-02-10T20:42:22.443Z,14.86
2019-02-10T20:45:08.878Z,14.35
2019-02-10T20:47:54.933Z,15.01
2019-02-10T20:50:33.346Z,14.00
2019-02-10T20:53:21.114Z,13.36
2019-02-10T20:55:59.675Z,13.58
2019-02-10T20:58:32.096Z,13.22
2019-02-10T21:04:02.622Z,14.43
2019-02-10T21:06:44.431Z,14.56
2019-02-10T21:09:19.835Z,14.52
2019-02-10T21:11:49.753Z,14.12
2019-02-10T21:14:19.746Z,13.80
2019-02-10T21:16:49.751Z,14.72
2019-02-10T21:19:36.137Z,14.43
2019-02-10T21:22:08.482Z,15.13
2019-02-10T21:24:43.883Z,14.07
2019-02-10T21:27:13.788Z,14.48
2019-02-10T21:29:46.696Z,14.37
2019-02-10T21:32:28.867Z,14.41
2019-02-10T21:35:01.293Z,14.62
2019-02-10T21:37:33.789Z,14.87
2019-02-10T21:40:12.468Z,13.69
2019-02-10T21:42:45.325Z,14.33
2019-02-10T21:45:15.311Z,14.54
2019-02-10T21:47:45.221Z,13.90
2019-02-10T21:50:13.519Z,14.24
2019-02-10T21:52:41.819Z,14.78
2019-02-10T21:55:10.177Z,14.96
2019-02-10T21:57:38.429Z,14.55
2019-02-10T22:00:14.191Z,15.36
2019-02-10T22:02:42.488Z,14.56
2019-02-10T22:05:10.941Z,15.46
2019-02-10T22:07:39.198Z,15.28
2019-02-10T22:10:11.955Z,15.30
2019-02-10T22:12:40.229Z,15.17
2019-02-10T22:15:10.120Z,14.77
2019-02-10T22:17:38.368Z,14.60
2019-02-10T22:20:09.540Z,13.71
2019-02-10T22:22:37.827Z,13.63
2019-02-10T22:25:08.820Z,13.99
2019-02-10T22:27:37.102Z,14.22
2019-02-10T22:30:08.570Z,13.68
2019-02-10T22:32:36.909Z,14.16
2019-02-10T22:35:05.845Z,13.72
2019-02-10T22:37:34.133Z,14.20
2019-02-10T22:40:02.398Z,14.03
2019-02-10T22:42:30.762Z,14.00
2019-02-10T22:44:59.027Z,13.04
2019-02-10T22:47:27.331Z,13.27
2019-02-10T22:49:55.587Z,13.72
2019-02-10T22:52:23.866Z,13.59
2019-02-10T22:54:52.143Z,12.82
2019-02-10T22:57:20.424Z,13.80
2019-02-10T22:59:48.689Z,13.14
2019-02-10T23:02:19.022Z,13.37
2019-02-10T23:04:46.944Z,12.85
2019-02-10T23:07:15.226Z,13.07
2019-02-10T23:09:43.469Z,13.36
2019-02-10T23:12:12.108Z,12.76
2019-02-10T23:14:40.392Z,12.97
2019-02-10T23:17:08.667Z,12.02
2019-02-10T23:19:36.928Z,12.63
2019-02-10T23:22:05.269Z,12.70
2019-02-10T23:24:33.559Z,13.72
2019-02-10T23:27:01.821Z,12.78
2019-02-10T23:29:30.129Z,12.95
2019-02-10T23:31:58.391Z,12.98
2019-02-10T23:34:26.731Z,13.47
2019-02-10T23:36:55.000Z,13.79
2019-02-10T23:39:23.306Z,13.21
2019-02-10T23:41:51.643Z,12.14
2019-02-10T23:44:19.894Z,13.41
2019-02-10T23:46:48.175Z,12.39
2019-02-10T23:49:16.507Z,12.90
2019-02-10T23:51:44.758Z,13.43
2019-02-10T23:54:13.490Z,13.19
2019-02-10T23:56:47.080Z,13.59
2019-02-10T23:59:11.822Z,13.46
